Aviation Digital Data Service (ADDS)

Output produced by METARs form (0055 UTC 22 September 2017)
found at http://www.aviationweather.gov/adds/metars/
 
KGBD 212320Z 2200/2224 17020G28KT P6SM FEW100 AMD LTD TO CLD VIS AND WIND
       
KGCC 212320Z 2200/2224 02012KT P6SM SKC 
     FM220200 35006KT P6SM SCT120 
     FM221100 36008KT P6SM BKN040
       
KGCK 212320Z 2200/2224 19017G25KT P6SM SKC 
     FM220400 18015KT P6SM SKC WS020/19045KT 
     FM221400 19017G26KT P6SM FEW250
       
KGCN 212330Z 2200/2224 22026G36KT P6SM FEW050 
     FM220400 21010G25KT P6SM FEW040 FEW150 
     FM221800 22018G30KT P6SM FEW050
       
KGDV 212320Z 2200/2224 34010KT P6SM BKN090 
     FM220900 02011KT P6SM VCSH BKN080 
     FM221800 03011KT P6SM BKN035
       
KGEG 212329Z 2200/2224 10004KT P6SM VCSH SCT020 BKN050 BKN200 
     TEMPO 2200/2201 -SHRA BKN020 
     FM220300 35004KT P6SM FEW070 SCT200 
     FM221500 03008KT P6SM SCT100
       
TAF KGFA 211902Z 2119/2301 26006KT 9999 SCT050 SCT130 BKN200 QNH2983INS 
     BECMG 2201/2202 03012KT 9999 FEW120 SCT200 QNH2990INS 
     BECMG 2206/2207 03012KT 9999 SCT020 BKN050 620505 QNH2995INS 
     BECMG 2209/2210 03015KT 8000 -RA SCT005 BKN010 620109 QNH2998INS TX13/2123Z TN04/2217Z
       
KGFK 212336Z 2200/2224 15013KT P6SM SCT050 
     FM220200 20010KT P6SM SCT200 
     FM220400 26008KT P6SM SCT130 
     FM220500 30007KT P6SM SCT130 
     FM220800 33007KT P6SM SCT150 
     FM221100 36008KT P6SM BKN200 
     FM222100 02010KT P6SM OVC015
       
KGFL 212320Z 2200/2224 02005KT P6SM BKN250 
     FM220700 VRB03KT 6SM BR SCT250 
     FM221300 04006KT P6SM FEW050 SCT250
       
KGGG 212321Z 2200/2224 16007KT P6SM VCSH SCT050 BKN250 
     FM220100 16008KT P6SM SCT050 BKN250 
     TEMPO 2208/2212 3SM BR BKN008 
     FM221200 15003KT 3SM BR SCT008 
     TEMPO 2212/2215 P6SM NSW BKN008 
     FM221500 16006KT P6SM SCT015 SCT250 
     TEMPO 2215/2217 BKN025 
     FM221700 16008KT P6SM SCT035 SCT045 SCT250
       
KGGW 212320Z 2200/2224 31008KT P6SM BKN110 
     FM220500 VRB06KT P6SM BKN110 
     FM220800 04009KT P6SM VCSH BKN080
       
KGJT 212332Z 2200/2224 19019G27KT P6SM FEW130 SCT200 
     FM220400 16016G23KT P6SM FEW150 SCT250 
     FM220800 15022G30KT P6SM FEW120 SCT250 
     FM221800 21024G32KT P6SM FEW090 SCT110
       
KGKY 212332Z 2200/2224 17012KT P6SM VCSH FEW050 SCT250 
     FM220100 16010KT P6SM SCT250 
     FM221000 17011KT P6SM BKN015 
     FM221400 18013KT P6SM BKN025 
     FM221600 16013KT P6SM SCT040
       
KGLD 212332Z 2200/2224 18018G28KT P6SM FEW250 WS020/18040KT 
     FM221700 19024G32KT P6SM FEW100 FEW250 WS010/21025KT
       
KGLH 212320Z 2200/2224 13003KT P6SM VCSH SCT060 
     FM220100 00000KT P6SM SKC 
     FM221600 05005KT P6SM FEW050
       
KGLS 212336Z 2200/2224 13010KT P6SM VCSH SCT020 BKN030 BKN040 
     FM220200 13004KT P6SM BKN025 
     FM220900 15008KT P6SM FEW020 
     FM221600 12009KT P6SM VCSH SCT030 
     FM222100 10009KT P6SM FEW250
       
KGMU 212334Z 2200/2224 03004KT P6SM SCT060 
     FM221800 07005KT P6SM FEW045
       
KGNV 212340Z 2200/2224 06003KT P6SM FEW060 SCT150 BKN250 
     FM221300 05005KT P6SM SCT025 BKN200 
     FM221600 06008KT P6SM VCSH BKN030 BKN070 
     FM222000 06010KT P6SM VCSH BKN045
       
KGON 212332Z 2200/2224 36015G21KT P6SM VCSH OVC100 
     FM220600 36017G28KT P6SM VCSH SCT025 OVC080 
     TEMPO 2206/2210 5SM -SHRA BKN025 
     FM221300 36020G29KT P6SM VCSH SCT025 OVC050
       
KGPT 212320Z 2200/2224 00000KT P6SM FEW040 
     FM221400 04004KT P6SM FEW025
       
KGRB 212337Z 2200/2224 10006KT P6SM BKN200 
     FM220400 13004KT 4SM BR SCT250 
     FM220600 18004KT 3SM BR SCT150 
     TEMPO 2210/2213 1SM BR 
     FM221300 20007KT P6SM FEW250 
     FM221600 20010G17KT P6SM SKC
       
TAF KGRF 212103Z 2121/2303 01006KT 9999 SCT020 BKN030 BKN150 QNH2993INS 
     BECMG 2204/2205 01009KT 9999 FEW030 SCT150 QNH2997INS 
     TEMPO 2212/2218 4800 BR 
     BECMG 2222/2223 32009KT 9999 FEW070 BKN150 QNH3002INS TX17/2200Z TN05/2214Z
       
KGRI 212320Z 2200/2224 16017G24KT P6SM FEW250 
     FM220200 16015KT P6SM FEW250 WS010/19050KT 
     FM221300 18014G20KT P6SM FEW250 
     FM222000 18020G29KT P6SM FEW100 SCT250
       
TAF KGRK 220000Z 2200/2306 14012KT 9999 SCT020 QNH2986INS 
     BECMG 2208/2209 16009KT 9999 SCT015 QNH2992INS 
     TEMPO 2209/2215 BKN015 
     BECMG 2214/2215 16010G15KT 9999 SCT025 QNH2986INS 
     BECMG 2223/2224 17009KT 9999 SCT030 QNH2990INS TX35/2220Z TN23/2211Z
       
KGRR 212340Z 2200/2224 10008KT P6SM VCTS BKN060CB 
     FM220100 15004KT P6SM SCT070 
     FM220900 17005KT 6SM HZ BKN150 
     FM221500 20007KT P6SM SCT040 SCT150
       
TAF KGSB 212000Z 2120/2302 VRB06KT 8000 -SHRA FEW030 SCT050 QNH2993INS 
     TEMPO 2120/2121 VRB15G20KT 6000 -TSRA BKN030CB 
     BECMG 2122/2123 VRB03KT 9999 NSW SCT030 BKN050 QNH2994INS 
     BECMG 2205/2206 VRB03KT 9999 BKN017 BKN045 QNH2995INS 
     BECMG 2212/2213 15006KT 9999 BKN033 BKN065 QNH2992INS 
     BECMG 2218/2219 14006KT 9999 FEW080 QNH2990INS TX32/2120Z TN19/2212Z
       
KGSO 212320Z 2200/2224 03004KT P6SM FEW050 SCT250
       
KGSP 212334Z 2200/2224 03004KT P6SM SCT070 
     FM221800 06004KT P6SM SCT045
       
TAF KGTB 211700Z 2117/2223 04006KT 9999 FEW080 QNH3007INS WND 08006KT AFT 2203 TX27/2121Z TN13/2210Z
       
KGTF 212344Z 2200/2224 06007KT P6SM SCT060 BKN120 
     FM220400 03011KT P6SM SCT030 OVC070 
     TEMPO 2208/2212 4SM -RA BR SCT012 OVC025 
     FM221200 02010KT 1SM -RASN BR SCT008 OVC015 
     FM221600 03007KT 4SM -RA BR OVC015
       
KGTR 212320Z 2200/2224 03005KT P6SM VCTS BKN050CB 
     FM220200 06003KT P6SM FEW050 SCT120 
     FM220900 00000KT 5SM BR SKC 
     FM221400 VRB03KT P6SM SKC
       
KGUC 212332Z 2200/2224 18015G23KT P6SM FEW120 
     FM220200 17008KT P6SM FEW130 FEW250 
     FM220500 01005KT P6SM FEW130 FEW250 
     FM221500 25009KT P6SM FEW080 SCT130 
     FM221800 23017G27KT P6SM FEW080 SCT120
       
KGUP 212334Z 2200/2224 23018G30KT P6SM FEW080 
     FM220200 21011KT P6SM SCT080 
     FM221700 21015G25KT P6SM FEW060 
     FM221930 22024G36KT P6SM SCT070
       
TAF KGUS 211900Z 2119/2301 19006KT 9999 FEW040 FEW150 QNH3002INS 
     BECMG 2208/2209 18006KT 9999 SCT035 QNH3007INS TX33/2121Z TN20/2211Z
       
KGWO 212320Z 2200/2224 00000KT P6SM SKC 
     FM220900 00000KT 4SM BR SKC 
     FM221400 04004KT P6SM FEW050
       
KGYY 212328Z 2200/2224 18007KT P6SM SCT250